VIDPVNKT [WF1806]

Details From VIDP - INDIRA GANDHI INTL
To VNKT - Kathmandu Tribhuvan Intl
Flight Number WF1806
Tags decoded
Created
Modified
Stats Distance 489 nm / 905 km
Max Altitude 0 ft / 0 m
Waypoints 5
Social Downloads 37
Likes 0
Share VATSIM

Download

Looking for another format? Having issues loading an existing format? Contact us
Advertisement - Login to hide

Notes

Requested: VIDP ALI LLK SMR VNKT

Route

VIDP ALI LLK SMR VNKT

ID Type Via Altitude Latitude Longitude Leg Dist Tot Dist Heading (true) Name
O VIDP APT - 0 ft / 0 m 28.56650˚ 77.10309˚ - 0 nm - INDIRA GANDHI INTL
ALI VOR - 0 ft / 0 m 27.82931˚ 78.17833˚ 72 nm 72 nm 128° / 128° ALIGARH VOR-DME
LLK VOR - 0 ft / 0 m 26.76220˚ 80.88047˚ 157 nm 229 nm 113° / 115° LUCKNOW VOR-DME
SMR VOR - 0 ft / 0 m 27.16417˚ 84.98222˚ 220 nm 450 nm 83° / 85° SIMARA VOR-DME
O VNKT APT - 0 ft / 0 m 27.69658˚ 85.35910˚ 37 nm 488 nm 32° / 32° Kathmandu Tribhuvan Intl

Altitude Profile

Advertisement - Login to hide

Weather


0- 5 10 15 20 25 30 35+ Temperature / ° C

Clouds and Precipitation
Forecast for 2017-12-13 18:00 UTC. Updated 2 hours ago

Ground ~20,000 ft ~40,000 ft Winds

VIDP

Details ICAO VIDP (DEL)
Name INDIRA GANDHI INTL
Region India
Timezone Asia/Kolkata (UTC+5.5)
Stats Elevation 777 ft / 237 m (AMSL)
Location 28.566496° 77.103090°
Runways 2
Magnetic Variation 1.217° E

METAR

VIDP 131630Z 28004KT 0150 R28/1000 R29/0150 FG NSC 12/11 Q1019 NOSIG

Decode

TAF

TAF VIDP 130500Z 1306/1412 26005KT 0800 MUFG NSC BECMG 1308/1310 29005KT 1000 BR BECMG 1321/1323 00000KT 0100 FG VV/// BECMG 1405/1407 0800 MIFG NSC BECMG 1408/1410 29006KT 1200 FU NSC

Decode

Departure Runways

ID Width Length Bearing (true) Bearing (mag) Surface Threshold Offset Overrun Length
09 150 ft / 46 m 9,270 ft / 2,826 m 91.50° 90.28° Asphalt 0 ft / 0 m 195 ft / 59 m
10 150 ft / 46 m 12,488 ft / 3,807 m 104.67° 103.45° Asphalt 0 ft / 0 m 880 ft / 268 m
27 150 ft / 46 m 9,270 ft / 2,826 m 271.52° 270.30° Asphalt 499 ft / 152 m 0 ft / 0 m
28 150 ft / 46 m 12,488 ft / 3,807 m 284.69° 283.47° Asphalt 0 ft / 0 m 470 ft / 143 m

VNKT

Details ICAO VNKT (KTM)
Name Kathmandu Tribhuvan Intl
Region Nepal
Timezone Asia/Kathmandu (UTC+5.8)
Stats Elevation 4,390 ft / 1,338 m (AMSL)
Location 27.696583° 85.359100°
Runways 1
Magnetic Variation 0.492° E

METAR

VNKT 131650Z 09004KT 7000 FEW020 10/06 Q1021 NOSIG

Decode

TAF

TAF VNKT 131100Z 1312/1412 28005KT 7000 FEW020 BECMG 1314/1315 VRB02KT 6000 FEW015 BECMG 1400/1402 00000KT 3000 BR FEW010 PROB40 1401/1403 2000 BR BECMG 1404/1405 13004KT 5000 BR/HZ FEW015 BECMG 1407/1409 28008KT 8000 FEW020

Decode

Destination Runways

ID Width Length Bearing (true) Bearing (mag) Surface Threshold Offset Overrun Length
02 148 ft / 45 m 10,017 ft / 3,053 m 21.50° 21.01° Asphalt 0 ft / 0 m 0 ft / 0 m
20 148 ft / 45 m 10,017 ft / 3,053 m 201.51° 201.02° Asphalt 400 ft / 122 m 0 ft / 0 m

Popular Alternatives